Time;durP1;ratioP1;P1;durP2;ratioP2;P2;SDS_P1;SDS_P2;PMS_P1;PMS_P2;Temp;Humidity;BMP_temperature;BMP_pressure;BME280_temperature;BME280_humidity;BME280_pressure;Samples;Min_cycle;Max_cycle;Signal;HPM_P1;HPM_P2
2023/07/27 00:00:05;;;;;;;15.50;5.60;;;;;;;16.40;92.28;100835.28;5032075;28;20096;-76
2023/07/27 00:02:31;;;;;;;18.55;5.75;;;;;;;16.36;94.04;100835.75;5031720;28;20049;-76
2023/07/27 00:04:56;;;;;;;15.75;5.90;;;;;;;16.32;94.31;100827.03;5030635;28;20032;-76
2023/07/27 00:07:21;;;;;;;15.23;5.28;;;;;;;16.31;95.19;100829.91;5044759;28;20026;-77
2023/07/27 00:09:47;;;;;;;19.27;6.97;;;;;;;16.27;96.96;100826.66;5031418;28;20436;-76
2023/07/27 00:12:12;;;;;;;16.77;5.70;;;;;;;16.20;95.23;100828.25;5030960;28;20025;-76
2023/07/27 00:14:37;;;;;;;15.73;6.10;;;;;;;16.19;99.12;100821.09;5032098;28;20051;-76
2023/07/27 00:17:03;;;;;;;17.90;6.03;;;;;;;16.15;97.00;100825.13;5031336;28;20049;-76
2023/07/27 00:19:28;;;;;;;17.98;6.68;;;;;;;16.11;97.78;100818.31;5032119;28;20108;-76
2023/07/27 00:21:53;;;;;;;19.90;6.30;;;;;;;16.09;99.30;100813.00;5031315;28;20027;-76
2023/07/27 00:24:19;;;;;;;16.40;5.75;;;;;;;16.05;98.01;100823.31;5028675;28;20108;-76
2023/07/27 00:26:44;;;;;;;17.98;6.70;;;;;;;16.02;99.57;100804.63;5025701;28;20044;-76
2023/07/27 00:29:09;;;;;;;19.40;5.70;;;;;;;15.99;99.18;100820.31;5029700;28;20392;-77
2023/07/27 00:31:35;;;;;;;17.13;6.10;;;;;;;15.96;100.00;100813.38;5029926;28;20018;-77
2023/07/27 00:34:00;;;;;;;15.45;5.38;;;;;;;15.91;100.00;100810.25;5030167;28;20539;-76
2023/07/27 00:36:25;;;;;;;18.65;5.72;;;;;;;15.86;100.00;100807.97;5030611;28;20112;-77
2023/07/27 00:38:51;;;;;;;16.77;6.03;;;;;;;15.80;100.00;100811.28;5030493;28;20068;-77
2023/07/27 00:41:16;;;;;;;16.27;6.85;;;;;;;15.76;100.00;100803.56;5029071;28;20033;-77
2023/07/27 00:43:41;;;;;;;15.65;5.63;;;;;;;15.69;100.00;100798.72;5031328;28;20523;-77
2023/07/27 00:46:07;;;;;;;17.63;5.57;;;;;;;15.63;100.00;100791.19;5027440;28;20473;-77
2023/07/27 00:48:33;;;;;;;15.95;5.57;;;;;;;15.58;100.00;100792.63;5031552;28;20022;-77
2023/07/27 00:50:58;;;;;;;16.25;6.25;;;;;;;15.54;100.00;100783.94;5030346;28;20387;-77
2023/07/27 00:53:24;;;;;;;18.52;5.78;;;;;;;15.49;100.00;100780.81;5031996;28;20032;-77
2023/07/27 00:55:50;;;;;;;19.40;7.15;;;;;;;15.45;100.00;100774.00;5029976;28;20370;-77
2023/07/27 00:58:15;;;;;;;19.95;6.78;;;;;;;15.40;100.00;100777.13;5029077;28;20100;-77
2023/07/27 01:00:44;;;;;;;16.00;6.35;;;;;;;15.36;100.00;100773.03;5030947;28;20041;-77
2023/07/27 01:03:10;;;;;;;19.50;6.40;;;;;;;15.31;100.00;100757.19;5031930;28;20535;-77
2023/07/27 01:05:37;;;;;;;17.17;6.18;;;;;;;15.25;100.00;100757.78;5046249;28;20022;-77
2023/07/27 01:08:02;;;;;;;20.77;7.68;;;;;;;15.23;100.00;100750.78;5031578;28;20388;-77
2023/07/27 01:10:46;;;;;;;18.08;6.32;;;;;;;15.18;100.00;100741.28;5030407;28;20080;-76
2023/07/27 01:13:26;;;;;;;18.13;6.63;;;;;;;15.16;100.00;100743.25;5028214;28;20441;-77
2023/07/27 01:15:58;;;;;;;17.38;6.38;;;;;;;15.11;100.00;100740.16;5029419;28;20042;-76
2023/07/27 01:18:32;;;;;;;20.35;7.10;;;;;;;15.09;100.00;100735.88;5029765;28;20112;-76
2023/07/27 01:21:07;;;;;;;19.30;7.38;;;;;;;15.07;100.00;100737.88;5030378;28;20032;-76
2023/07/27 01:24:05;;;;;;;21.95;6.63;;;;;;;15.06;100.00;100731.59;5031543;28;20033;-76
2023/07/27 01:27:01;;;;;;;19.85;7.15;;;;;;;15.10;100.00;100732.19;4989337;28;20049;-76
2023/07/27 01:29:54;;;;;;;23.27;8.25;;;;;;;15.09;100.00;100731.31;5029058;28;20021;-76
2023/07/27 01:32:22;;;;;;;22.70;7.72;;;;;;;15.07;100.00;100724.34;5026434;28;20397;-76
2023/07/27 01:34:54;;;;;;;17.85;7.18;;;;;;;15.06;100.00;100720.75;5029274;28;20021;-76
2023/07/27 01:37:21;;;;;;;17.80;6.65;;;;;;;15.07;100.00;100716.22;5030100;28;20029;-76
2023/07/27 01:39:51;;;;;;;20.48;7.30;;;;;;;15.08;100.00;100713.38;5030095;28;20481;-77
2023/07/27 01:42:18;;;;;;;19.17;7.50;;;;;;;15.06;100.00;100709.09;5031410;28;20037;-76
2023/07/27 01:44:44;;;;;;;20.88;7.97;;;;;;;15.07;100.00;100708.94;5030615;28;20057;-76
2023/07/27 01:47:11;;;;;;;21.02;8.15;;;;;;;15.08;100.00;100701.66;5032356;28;20029;-76
2023/07/27 01:49:39;;;;;;;19.48;6.95;;;;;;;15.07;100.00;100708.09;5034160;28;20025;-76
2023/07/27 01:52:06;;;;;;;19.27;7.28;;;;;;;15.06;100.00;100695.56;5035811;28;20029;-76
2023/07/27 01:54:32;;;;;;;20.35;7.60;;;;;;;15.06;100.00;100698.28;5036003;28;20092;-76
2023/07/27 01:56:58;;;;;;;19.70;8.13;;;;;;;15.06;100.00;100688.28;5036411;28;20048;-76
2023/07/27 01:59:24;;;;;;;18.30;7.15;;;;;;;15.01;100.00;100683.31;5035424;28;20038;-76
2023/07/27 02:01:50;;;;;;;19.35;7.75;;;;;;;15.01;100.00;100674.34;5035848;28;20503;-76
2023/07/27 02:04:16;;;;;;;19.17;7.35;;;;;;;15.01;100.00;100669.78;5035863;28;20025;-76
2023/07/27 02:06:41;;;;;;;24.77;8.70;;;;;;;15.03;100.00;100662.34;5031127;28;20040;-76
2023/07/27 02:09:06;;;;;;;22.58;8.52;;;;;;;15.07;100.00;100659.38;5035183;28;20083;-76
2023/07/27 02:11:33;;;;;;;18.95;7.43;;;;;;;15.06;100.00;100663.94;5039113;28;20029;-76
2023/07/27 02:14:06;;;;;;;19.48;8.20;;;;;;;15.05;100.00;100643.25;5037661;28;20029;-76
2023/07/27 02:16:37;;;;;;;21.20;7.95;;;;;;;15.05;100.00;100645.13;5039045;28;20068;-76
2023/07/27 02:19:04;;;;;;;21.08;7.28;;;;;;;15.03;100.00;100642.56;5039107;28;20120;-76
2023/07/27 02:21:31;;;;;;;21.20;7.80;;;;;;;14.99;100.00;100633.91;5029134;28;20021;-76
2023/07/27 02:23:58;;;;;;;19.95;7.70;;;;;;;14.97;100.00;100638.59;5033659;28;20033;-76
2023/07/27 02:26:24;;;;;;;17.65;6.85;;;;;;;14.97;100.00;100625.06;5036672;28;20038;-76
2023/07/27 02:28:49;;;;;;;22.17;8.40;;;;;;;14.99;100.00;100614.97;5037211;28;20061;-76
2023/07/27 02:31:15;;;;;;;20.58;7.88;;;;;;;14.96;100.00;100612.53;5037029;28;20022;-76
2023/07/27 02:33:40;;;;;;;20.25;7.75;;;;;;;14.97;100.00;100613.41;5035297;28;20033;-76
2023/07/27 02:36:05;;;;;;;18.85;7.13;;;;;;;14.95;100.00;100608.13;5036255;28;20028;-76
2023/07/27 02:38:31;;;;;;;18.88;7.82;;;;;;;14.93;100.00;100607.41;5037623;28;20040;-76
2023/07/27 02:40:56;;;;;;;19.77;7.47;;;;;;;14.91;100.00;100600.47;5034953;28;20843;-76
2023/07/27 02:43:21;;;;;;;23.15;7.97;;;;;;;14.90;100.00;100591.47;5035881;28;20362;-76
2023/07/27 02:45:47;;;;;;;20.95;8.48;;;;;;;14.93;100.00;100588.47;5034659;28;20053;-76
2023/07/27 02:48:12;;;;;;;21.08;7.88;;;;;;;14.93;100.00;100585.75;5035646;28;20025;-76
2023/07/27 02:50:37;;;;;;;22.13;7.85;;;;;;;14.93;100.00;100585.75;5036426;28;20508;-76
2023/07/27 02:53:02;;;;;;;21.02;8.82;;;;;;;14.92;100.00;100580.50;5035921;28;20063;-76
2023/07/27 02:55:28;;;;;;;19.58;8.65;;;;;;;14.91;100.00;100579.66;5032702;28;20175;-76
2023/07/27 02:57:53;;;;;;;19.02;8.05;;;;;;;14.89;100.00;100578.97;5033211;28;20032;-77
2023/07/27 03:00:19;;;;;;;21.35;8.13;;;;;;;14.88;100.00;100577.25;5032582;28;20045;-76
2023/07/27 03:02:44;;;;;;;18.38;7.22;;;;;;;14.84;100.00;100576.66;5033964;28;20032;-76
2023/07/27 03:05:09;;;;;;;18.95;7.78;;;;;;;14.79;100.00;100570.88;5032097;28;20076;-76
2023/07/27 03:07:35;;;;;;;20.75;8.10;;;;;;;14.78;100.00;100560.19;5031117;28;20043;-77
2023/07/27 03:10:00;;;;;;;21.00;7.70;;;;;;;14.74;100.00;100554.22;5033087;28;20026;-76
2023/07/27 03:12:25;;;;;;;20.08;7.50;;;;;;;14.68;100.00;100558.38;5031683;28;20092;-76
2023/07/27 03:14:51;;;;;;;17.08;6.85;;;;;;;14.67;100.00;100553.97;5031127;28;20481;-76
2023/07/27 03:17:16;;;;;;;20.85;7.85;;;;;;;14.65;100.00;100542.41;5018237;28;20045;-77
2023/07/27 03:19:42;;;;;;;22.42;7.55;;;;;;;14.65;100.00;100538.88;5032226;28;20057;-76
2023/07/27 03:22:07;;;;;;;20.55;7.60;;;;;;;14.62;100.00;100534.59;5032748;28;20069;-76
2023/07/27 03:24:33;;;;;;;19.83;7.18;;;;;;;14.63;100.00;100524.66;5033102;28;20031;-76
2023/07/27 03:26:58;;;;;;;19.67;7.38;;;;;;;14.63;100.00;100519.25;5031854;28;20108;-76
2023/07/27 03:29:24;;;;;;;19.95;7.78;;;;;;;14.63;100.00;100508.41;5031645;28;20095;-76
2023/07/27 03:31:49;;;;;;;21.05;7.07;;;;;;;14.61;100.00;100503.16;5030713;28;20018;-77
2023/07/27 03:34:14;;;;;;;19.45;7.65;;;;;;;14.62;100.00;100496.72;5030626;28;20033;-76
2023/07/27 03:36:40;;;;;;;19.33;7.65;;;;;;;14.62;100.00;100490.47;5031440;28;20032;-77
2023/07/27 03:39:05;;;;;;;18.05;6.93;;;;;;;14.60;100.00;100477.06;5031725;28;20025;-77
2023/07/27 03:41:30;;;;;;;19.20;7.07;;;;;;;14.60;100.00;100470.81;5032729;28;20041;-77
2023/07/27 03:43:56;;;;;;;21.45;7.82;;;;;;;14.61;100.00;100464.41;5031618;28;20032;-76
2023/07/27 03:46:21;;;;;;;18.38;7.10;;;;;;;14.63;100.00;100466.00;5031804;28;20025;-76
2023/07/27 03:48:48;;;;;;;20.40;7.82;;;;;;;14.63;100.00;100457.03;5030949;28;20021;-77
2023/07/27 03:51:14;;;;;;;19.17;7.32;;;;;;;14.60;100.00;100455.44;5031465;28;20053;-77
2023/07/27 03:53:39;;;;;;;19.30;8.00;;;;;;;14.63;100.00;100448.91;5032864;28;20492;-76
2023/07/27 03:56:05;;;;;;;18.88;7.85;;;;;;;14.60;100.00;100441.91;5031441;28;20021;-76
2023/07/27 03:58:30;;;;;;;18.52;6.25;;;;;;;14.61;100.00;100440.97;5032827;28;20056;-77
2023/07/27 04:00:56;;;;;;;22.60;7.13;;;;;;;14.56;100.00;100436.97;5031847;28;20396;-77
2023/07/27 04:03:21;;;;;;;20.65;6.07;;;;;;;14.53;100.00;100440.81;5027481;28;20108;-77
2023/07/27 04:05:47;;;;;;;18.65;6.57;;;;;;;14.53;100.00;100443.50;5020583;28;20049;-77
2023/07/27 04:08:12;;;;;;;18.42;6.30;;;;;;;14.55;100.00;100446.91;5030007;28;20108;-77
2023/07/27 04:10:39;;;;;;;17.58;6.75;;;;;;;14.51;100.00;100446.38;5030448;28;20021;-77
2023/07/27 04:13:04;;;;;;;15.40;5.57;;;;;;;14.52;100.00;100447.19;5030934;28;20044;-77
2023/07/27 04:15:30;;;;;;;18.42;6.38;;;;;;;14.53;100.00;100438.09;5031132;28;20037;-77
2023/07/27 04:17:55;;;;;;;15.70;5.25;;;;;;;14.53;100.00;100438.09;5029989;28;20037;-77
2023/07/27 04:20:21;;;;;;;15.05;4.85;;;;;;;14.52;100.00;100428.28;5028566;28;20036;-77
2023/07/27 04:22:46;;;;;;;16.23;5.53;;;;;;;14.55;100.00;100430.69;5030173;28;20033;-77
2023/07/27 04:25:11;;;;;;;15.60;5.30;;;;;;;14.57;100.00;100417.88;5032193;28;20032;-77
2023/07/27 04:27:37;;;;;;;15.25;4.72;;;;;;;14.56;100.00;100416.16;5031272;28;20029;-76
2023/07/27 04:30:02;;;;;;;16.17;4.97;;;;;;;14.58;100.00;100411.44;5031415;28;20029;-77
2023/07/27 04:32:28;;;;;;;15.43;5.15;;;;;;;14.59;100.00;100410.47;5031900;28;20065;-77
2023/07/27 04:34:53;;;;;;;15.45;4.85;;;;;;;14.59;100.00;100410.47;5030813;28;20396;-77
2023/07/27 04:37:20;;;;;;;12.68;4.22;;;;;;;14.57;100.00;100404.34;5029112;28;20108;-77
2023/07/27 04:39:46;;;;;;;14.18;4.68;;;;;;;14.56;100.00;100402.66;5019836;28;20087;-77
2023/07/27 04:42:11;;;;;;;16.15;4.82;;;;;;;14.55;100.00;100400.94;5032237;28;20037;-77
2023/07/27 04:44:36;;;;;;;16.88;5.07;;;;;;;14.56;100.00;100399.94;5028476;28;20457;-77
2023/07/27 04:47:01;;;;;;;15.52;5.30;;;;;;;14.59;100.00;100399.63;5027963;28;20043;-77
2023/07/27 04:49:27;;;;;;;13.68;4.70;;;;;;;14.61;100.00;100389.56;5032028;28;20029;-77
2023/07/27 04:51:52;;;;;;;14.30;4.82;;;;;;;14.59;100.00;100394.22;5029107;28;20033;-77
2023/07/27 04:54:18;;;;;;;16.00;5.50;;;;;;;14.60;100.00;100389.69;5026175;28;20025;-77
2023/07/27 04:56:43;;;;;;;15.45;5.38;;;;;;;14.62;100.00;100388.53;5030779;28;20400;-77
2023/07/27 04:59:08;;;;;;;14.07;5.50;;;;;;;14.66;100.00;100389.13;5030461;28;20417;-77
2023/07/27 05:01:34;;;;;;;17.13;5.20;;;;;;;14.66;100.00;100384.53;5030136;28;20381;-77
2023/07/27 05:03:59;;;;;;;16.00;4.80;;;;;;;14.65;100.00;100382.00;5030390;28;20030;-77
2023/07/27 05:06:24;;;;;;;16.60;5.68;;;;;;;14.65;100.00;100376.59;5030174;28;20021;-77
2023/07/27 05:08:49;;;;;;;13.63;5.05;;;;;;;14.67;100.00;100375.44;5030008;28;20029;-77
2023/07/27 05:11:15;;;;;;;15.15;5.22;;;;;;;14.68;100.00;100365.47;5029905;28;20033;-77
2023/07/27 05:13:40;;;;;;;14.77;5.50;;;;;;;14.71;100.00;100367.84;5031670;28;20033;-77
2023/07/27 05:16:06;;;;;;;14.23;4.95;;;;;;;14.73;100.00;100352.34;5029586;28;20042;-77
2023/07/27 05:18:31;;;;;;;14.98;4.78;;;;;;;14.73;100.00;100354.19;5030733;28;20050;-77
2023/07/27 05:20:56;;;;;;;15.73;5.38;;;;;;;14.75;100.00;100355.75;5032653;28;20065;-77
2023/07/27 05:23:22;;;;;;;12.82;5.05;;;;;;;14.77;100.00;100345.59;5034877;28;20104;-76
2023/07/27 05:25:47;;;;;;;14.88;4.93;;;;;;;14.78;100.00;100343.78;5034330;28;20445;-77
2023/07/27 05:28:13;;;;;;;15.20;4.90;;;;;;;14.80;100.00;100342.63;5033423;28;20037;-77
2023/07/27 05:30:38;;;;;;;14.32;5.03;;;;;;;14.83;100.00;100339.59;5034175;28;20469;-77
2023/07/27 05:33:04;;;;;;;13.68;5.13;;;;;;;14.85;100.00;100340.28;5033489;28;20029;-77
2023/07/27 05:35:30;;;;;;;14.13;5.63;;;;;;;14.88;100.00;100341.84;5033990;28;20072;-77
2023/07/27 05:37:55;;;;;;;12.55;4.70;;;;;;;14.91;100.00;100332.59;5031374;28;20436;-77
2023/07/27 05:40:20;;;;;;;15.93;4.90;;;;;;;14.92;100.00;100332.44;5031911;28;20108;-77
2023/07/27 05:42:46;;;;;;;11.18;3.90;;;;;;;14.93;100.00;100336.81;5034074;28;20128;-77
2023/07/27 05:45:11;;;;;;;13.02;4.78;;;;;;;14.95;100.00;100329.41;5031037;28;20461;-77
2023/07/27 05:47:36;;;;;;;12.43;4.82;;;;;;;14.97;100.00;100329.25;5045410;28;20058;-77
2023/07/27 05:50:02;;;;;;;13.70;4.03;;;;;;;15.00;100.00;100327.06;5034888;28;20044;-77
2023/07/27 05:52:28;;;;;;;14.52;4.68;;;;;;;15.03;100.00;100328.63;5034878;28;20088;-77
2023/07/27 05:54:53;;;;;;;11.57;4.38;;;;;;;15.07;100.00;100327.31;5034670;28;20041;-77
2023/07/27 05:57:18;;;;;;;10.00;4.05;;;;;;;15.08;100.00;100318.22;5033343;28;20026;-77
2023/07/27 05:59:44;;;;;;;13.15;4.20;;;;;;;15.11;100.00;100312.47;5032958;28;20060;-77
2023/07/27 06:02:09;;;;;;;11.02;4.00;;;;;;;15.12;100.00;100327.69;5033011;28;20092;-77
2023/07/27 06:04:34;;;;;;;10.95;4.05;;;;;;;15.17;100.00;100316.44;5033101;28;20025;-77
2023/07/27 06:07:00;;;;;;;12.25;3.75;;;;;;;15.23;100.00;100321.22;5034454;28;20025;-77
2023/07/27 06:09:26;;;;;;;13.13;4.53;;;;;;;15.26;100.00;100314.66;5032952;28;20025;-77
2023/07/27 06:11:51;;;;;;;11.75;4.03;;;;;;;15.27;100.00;100322.59;5033584;28;20037;-77
2023/07/27 06:14:17;;;;;;;12.75;3.88;;;;;;;15.28;100.00;100313.47;5033008;28;20175;-77
2023/07/27 06:16:43;;;;;;;11.77;4.28;;;;;;;15.31;100.00;100313.13;5035268;28;20060;-77
2023/07/27 06:19:08;;;;;;;11.55;3.97;;;;;;;15.31;100.00;100307.72;5032065;28;20086;-77
2023/07/27 06:21:33;;;;;;;8.68;3.47;;;;;;;15.37;100.00;100304.41;5033209;28;20112;-77
2023/07/27 06:23:59;;;;;;;7.90;3.45;;;;;;;15.40;100.00;100299.69;5034224;28;20030;-77
2023/07/27 06:26:24;;;;;;;7.93;3.25;;;;;;;15.44;100.00;100301.91;5035153;28;20101;-77
2023/07/27 06:28:50;;;;;;;11.88;3.85;;;;;;;15.49;100.00;100299.59;5034307;28;20029;-77
2023/07/27 06:31:15;;;;;;;9.95;3.33;;;;;;;15.54;100.00;100301.81;5032482;28;20075;-77
2023/07/27 06:33:40;;;;;;;9.52;3.10;;;;;;;15.59;100.00;100290.50;5033360;28;20034;-77
2023/07/27 06:36:11;;;;;;;9.90;3.85;;;;;;;15.63;100.00;100295.44;5031143;28;20768;-77
2023/07/27 06:38:40;;;;;;;9.38;3.00;;;;;;;15.69;100.00;100289.38;5035415;28;20117;-77
2023/07/27 06:41:05;;;;;;;8.35;3.55;;;;;;;15.72;100.00;100291.78;5034264;28;20060;-77
2023/07/27 06:43:31;;;;;;;7.25;3.22;;;;;;;15.76;100.00;100296.88;5032162;28;20496;-77
2023/07/27 06:45:56;;;;;;;7.88;2.95;;;;;;;15.75;100.00;100293.31;5034762;28;20465;-76
2023/07/27 06:48:22;;;;;;;9.20;3.20;;;;;;;15.78;100.00;100293.03;5033310;28;20099;-77
2023/07/27 06:50:47;;;;;;;7.93;3.35;;;;;;;15.82;100.00;100294.41;5027666;28;20124;-77
2023/07/27 06:53:12;;;;;;;8.65;3.03;;;;;;;15.82;100.00;100290.84;5034910;28;20913;-77
2023/07/27 06:55:38;;;;;;;6.90;2.90;;;;;;;15.85;100.00;100298.66;5034391;28;20466;-77
2023/07/27 06:58:03;;;;;;;8.85;3.13;;;;;;;15.87;100.00;100294.78;5032503;28;20049;-77
2023/07/27 07:00:29;;;;;;;7.57;3.15;;;;;;;15.90;100.00;100296.31;5035461;28;20033;-77
2023/07/27 07:02:55;;;;;;;8.68;3.50;;;;;;;15.92;100.00;100290.75;5033644;28;20129;-77
2023/07/27 07:05:20;;;;;;;9.27;3.30;;;;;;;15.92;100.00;100291.59;5034183;28;20107;-77
2023/07/27 07:07:46;;;;;;;9.00;3.50;;;;;;;15.94;100.00;100291.44;5032171;28;20385;-77
2023/07/27 07:10:11;;;;;;;8.13;3.47;;;;;;;15.95;100.00;100288.56;5032569;28;20083;-77
2023/07/27 07:12:38;;;;;;;11.00;3.80;;;;;;;15.97;100.00;100297.38;5034487;28;20032;-77
2023/07/27 07:15:04;;;;;;;8.82;3.20;;;;;;;16.00;100.00;100294.34;5032602;28;20051;-77
2023/07/27 07:17:29;;;;;;;10.38;3.50;;;;;;;16.00;100.00;100294.34;5014490;28;20038;-77
2023/07/27 07:19:56;;;;;;;7.72;3.28;;;;;;;16.04;100.00;100287.56;5015082;28;20096;-77
2023/07/27 07:22:21;;;;;;;9.90;3.60;;;;;;;16.08;100.00;100293.53;5021967;28;20033;-77
2023/07/27 07:24:47;;;;;;;8.40;3.35;;;;;;;16.08;100.00;100294.38;5014105;28;20380;-77
2023/07/27 07:27:12;;;;;;;10.80;4.00;;;;;;;16.16;100.00;100303.56;5011868;28;20036;-77
2023/07/27 07:29:37;;;;;;;8.60;3.40;;;;;;;16.17;100.00;100297.13;5015465;28;20061;-77
2023/07/27 07:32:03;;;;;;;6.63;3.10;;;;;;;16.17;100.00;100292.56;5012793;28;20037;-77
2023/07/27 07:34:28;;;;;;;6.07;2.72;;;;;;;16.23;100.00;100289.19;5013618;28;20025;-77
2023/07/27 07:36:54;;;;;;;7.43;3.20;;;;;;;16.30;100.00;100281.25;5013010;28;20038;-77
2023/07/27 07:39:19;;;;;;;8.57;2.90;;;;;;;16.34;100.00;100279.91;5009902;28;20022;-77
2023/07/27 07:41:44;;;;;;;4.55;2.72;;;;;;;16.40;100.00;100278.41;5011208;28;20116;-77
2023/07/27 07:44:10;;;;;;;5.93;2.60;;;;;;;16.48;100.00;100272.16;5009425;28;20025;-77
2023/07/27 07:46:35;;;;;;;6.50;2.75;;;;;;;16.55;100.00;100274.03;5014854;28;20069;-76
2023/07/27 07:49:01;;;;;;;7.68;3.17;;;;;;;16.56;100.00;100283.00;5016731;28;20057;-77
2023/07/27 07:51:26;;;;;;;7.32;2.83;;;;;;;16.58;100.00;100281.00;5019376;28;20469;-75
2023/07/27 07:53:52;;;;;;;5.78;2.53;;;;;;;16.60;100.00;100277.13;5013018;28;20062;-77
2023/07/27 07:56:17;;;;;;;5.30;2.45;;;;;;;16.63;100.00;100267.78;5008047;28;20540;-77
2023/07/27 07:58:44;;;;;;;6.30;2.58;;;;;;;16.68;100.00;100278.16;5011937;28;20076;-77
2023/07/27 08:01:10;;;;;;;8.52;2.42;;;;;;;16.69;100.00;100277.13;5012583;28;20112;-77
2023/07/27 08:03:35;;;;;;;7.10;2.45;;;;;;;16.69;100.00;100278.00;5011761;28;20096;-78
2023/07/27 08:06:00;;;;;;;5.80;2.78;;;;;;;16.72;100.00;100274.06;5012860;28;20120;-76
2023/07/27 08:08:26;;;;;;;5.60;2.78;;;;;;;16.74;100.00;100272.88;5019653;28;20092;-79
2023/07/27 08:10:51;;;;;;;6.32;2.92;;;;;;;16.82;100.00;100268.50;5021696;28;20101;-81
2023/07/27 08:13:17;;;;;;;4.25;2.30;;;;;;;16.82;100.00;100268.50;5013369;28;20030;-80
2023/07/27 08:15:52;;;;;;;5.50;2.88;;;;;;;16.86;100.00;100275.28;5018170;28;20508;-79
2023/07/27 08:18:17;;;;;;;6.82;2.78;;;;;;;16.90;100.00;100261.25;5031793;28;20040;-77
2023/07/27 08:20:43;;;;;;;9.90;3.28;;;;;;;16.92;100.00;100274.66;5037036;28;20485;-79
2023/07/27 08:23:08;;;;;;;5.43;2.75;;;;;;;16.97;100.00;100263.28;5032810;28;20112;-80
2023/07/27 08:25:37;;;;;;;9.07;3.22;;;;;;;16.97;100.00;100261.44;5031525;28;20056;-79
2023/07/27 08:28:03;;;;;;;8.30;3.03;;;;;;;17.02;100.00;100258.19;5034252;28;20056;-79
2023/07/27 08:30:28;;;;;;;11.50;3.40;;;;;;;17.04;100.00;100261.59;5036062;28;20033;-79
2023/07/27 08:32:54;;;;;;;8.98;3.00;;;;;;;17.05;100.00;100261.41;5047550;28;20013;-79
2023/07/27 08:35:20;;;;;;;5.80;3.03;;;;;;;17.09;100.00;100260.06;5041164;28;20033;-80
2023/07/27 08:37:45;;;;;;;7.97;3.17;;;;;;;17.14;100.00;100264.13;5030050;28;20358;-79
2023/07/27 08:40:11;;;;;;;7.07;3.00;;;;;;;17.17;100.00;100261.09;5034199;28;20029;-79
2023/07/27 08:42:37;;;;;;;5.38;2.65;;;;;;;17.23;100.00;100257.69;5030680;28;20029;-79
2023/07/27 08:45:02;;;;;;;7.70;2.80;;;;;;;17.28;100.00;100256.16;5030011;28;20017;-80
2023/07/27 08:47:28;;;;;;;10.07;3.22;;;;;;;17.29;100.00;100252.44;5031763;28;21347;-79
2023/07/27 08:49:54;;;;;;;6.13;2.88;;;;;;;17.32;100.00;100253.97;5009558;28;20064;-79
2023/07/27 08:52:23;;;;;;;5.55;2.83;;;;;;;17.31;100.00;100263.13;5027294;28;20117;-79
2023/07/27 08:54:48;;;;;;;10.70;3.20;;;;;;;17.33;100.00;100255.63;5033229;28;20030;-78
2023/07/27 08:57:14;;;;;;;8.43;3.22;;;;;;;17.38;100.00;100255.97;5045534;28;20134;-82
2023/07/27 08:59:40;;;;;;;7.75;2.83;;;;;;;17.39;100.00;100268.53;5038319;28;20120;-80
2023/07/27 09:02:06;;;;;;;5.95;2.90;;;;;;;17.36;100.00;100266.16;5038795;28;20033;-78
2023/07/27 09:04:31;;;;;;;5.40;2.38;;;;;;;17.33;100.00;100261.06;5037212;28;20496;-79
2023/07/27 09:07:06;;;;;;;7.07;2.70;;;;;;;17.32;100.00;100261.25;5034063;28;20033;-80
2023/07/27 09:09:32;;;;;;;5.57;2.30;;;;;;;17.32;100.00;100263.97;5035558;28;20513;-79
2023/07/27 09:11:57;;;;;;;4.35;2.17;;;;;;;17.31;100.00;100257.69;5040104;28;20032;-81
2023/07/27 09:14:23;;;;;;;6.75;2.60;;;;;;;17.33;100.00;100257.50;5027994;28;20435;-83
2023/07/27 09:16:49;;;;;;;6.88;2.45;;;;;;;17.35;100.00;100263.59;5030766;28;20054;-82
2023/07/27 09:19:18;;;;;;;4.88;2.10;;;;;;;17.36;100.00;100255.28;5040582;28;20025;-76
2023/07/27 09:21:49;;;;;;;9.55;2.65;;;;;;;17.41;100.00;100258.34;5040185;28;20037;-77
2023/07/27 09:24:16;;;;;;;8.95;2.75;;;;;;;17.42;100.00;100253.75;5037941;28;20033;-80
2023/07/27 09:26:46;;;;;;;7.43;2.97;;;;;;;17.44;100.00;100251.75;5037469;28;20053;-79
2023/07/27 09:29:13;;;;;;;8.48;2.80;;;;;;;17.47;100.00;100252.22;5031366;28;20026;-79
2023/07/27 09:31:49;;;;;;;4.43;2.28;;;;;;;17.49;100.00;100253.94;5034492;28;20025;-78
2023/07/27 09:34:16;;;;;;;6.90;2.50;;;;;;;17.51;100.00;100260.91;5037172;28;20029;-79
2023/07/27 09:36:42;;;;;;;7.40;2.53;;;;;;;17.54;100.00;100248.81;5032030;28;20075;-79
2023/07/27 09:39:08;;;;;;;7.63;2.63;;;;;;;17.56;100.00;100250.34;5034100;28;20029;-80
2023/07/27 09:41:33;;;;;;;7.57;2.97;;;;;;;17.60;100.00;100251.69;5034252;28;20489;-79
2023/07/27 09:43:59;;;;;;;7.78;2.70;;;;;;;17.62;100.00;100248.81;5036491;28;20029;-79
2023/07/27 09:46:25;;;;;;;5.35;2.22;;;;;;;17.60;100.00;100248.13;5034839;28;20059;-79
2023/07/27 09:48:51;;;;;;;7.65;2.70;;;;;;;17.61;100.00;100247.97;5035264;28;20025;-79
2023/07/27 09:51:17;;;;;;;4.18;2.20;;;;;;;17.61;100.00;100252.53;5035287;28;20116;-79
2023/07/27 09:53:44;;;;;;;4.90;1.88;;;;;;;17.59;100.00;100249.16;5036128;28;20082;-79
2023/07/27 09:56:11;;;;;;;8.30;2.78;;;;;;;17.60;100.00;100256.25;5034941;28;20507;-79
2023/07/27 09:58:39;;;;;;;3.15;2.35;;;;;;;17.58;100.00;100253.72;5034731;28;20025;-79
2023/07/27 10:01:04;;;;;;;5.63;2.20;;;;;;;17.54;100.00;100251.53;5036719;28;20029;-79
2023/07/27 10:03:30;;;;;;;4.97;2.40;;;;;;;17.60;100.00;100253.53;5035245;28;20036;-77
2023/07/27 10:05:56;;;;;;;4.18;2.05;;;;;;;17.60;100.00;100251.69;5034318;28;20052;-79
2023/07/27 10:08:21;;;;;;;5.97;2.30;;;;;;;17.65;100.00;100253.88;5035662;28;20037;-79
2023/07/27 10:10:53;;;;;;;7.85;2.50;;;;;;;17.70;100.00;100251.50;5035897;28;20369;-79
2023/07/27 10:13:21;;;;;;;4.95;2.47;;;;;;;17.71;100.00;100263.22;5034886;28;20559;-79
2023/07/27 10:15:49;;;;;;;8.77;2.97;;;;;;;17.73;100.00;100256.59;5038687;28;20045;-69
2023/07/27 10:18:14;;;;;;;4.43;2.03;;;;;;;17.78;100.00;100253.34;5036696;28;20021;-69
2023/07/27 10:20:39;;;;;;;4.55;2.05;;;;;;;17.79;100.00;100252.34;5044176;28;20034;-69
2023/07/27 10:23:17;;;;;;;1.73;1.45;;;;;;;17.84;100.00;100258.09;5043237;28;20041;-69
2023/07/27 10:25:55;;;;;;;3.70;1.58;;;;;;;17.88;100.00;100254.00;5041893;28;20493;-70
2023/07/27 10:28:37;;;;;;;4.40;1.98;;;;;;;17.85;100.00;100258.91;5042334;28;20414;-69
2023/07/27 10:31:19;;;;;;;4.40;2.20;;;;;;;17.87;100.00;100259.63;5044484;28;20056;-69
2023/07/27 10:33:56;;;;;;;6.90;2.63;;;;;;;17.94;100.00;100260.66;5043199;28;20029;-69
2023/07/27 10:36:23;;;;;;;4.68;2.10;;;;;;;17.92;100.00;100259.94;5060046;28;20036;-69
2023/07/27 10:38:56;;;;;;;3.78;1.73;;;;;;;17.87;100.00;100260.44;5047640;28;20029;-69
2023/07/27 10:41:23;;;;;;;6.00;2.58;;;;;;;17.87;100.00;100265.88;5047487;28;20037;-70
2023/07/27 10:44:14;;;;;;;7.53;2.90;;;;;;;17.88;100.00;100264.88;5037015;28;20061;-78
2023/07/27 10:46:45;;;;;;;4.22;2.20;;;;;;;17.89;100.00;100266.59;5022942;28;20049;-79
2023/07/27 10:49:13;;;;;;;3.88;2.10;;;;;;;17.87;100.00;100256.91;5033575;28;20040;-78
2023/07/27 10:51:38;;;;;;;3.55;2.13;;;;;;;17.86;100.00;100257.91;5030477;28;20116;-79
2023/07/27 10:54:04;;;;;;;3.67;2.10;;;;;;;17.85;100.00;100251.63;5032817;28;20480;-79
2023/07/27 10:56:31;;;;;;;6.00;2.42;;;;;;;17.87;100.00;100257.72;5032150;28;20393;-79
2023/07/27 10:58:59;;;;;;;5.68;2.33;;;;;;;17.88;100.00;100261.28;5022953;28;20492;-79
2023/07/27 11:01:24;;;;;;;6.75;2.45;;;;;;;17.90;100.00;100257.41;5027673;28;20071;-79
2023/07/27 11:03:50;;;;;;;5.47;2.65;;;;;;;17.88;100.00;100253.13;5031261;28;20475;-79
2023/07/27 11:06:17;;;;;;;5.22;2.50;;;;;;;17.91;100.00;100255.56;5032845;28;20086;-79
2023/07/27 11:08:43;;;;;;;5.20;2.10;;;;;;;17.88;100.00;100256.72;5032017;28;20481;-78